createdAt,value
2023-05-08T00:00:20.425Z,14.18
2023-05-08T00:02:49.856Z,14.19
2023-05-08T00:05:16.317Z,14.16
2023-05-08T00:07:42.921Z,14.16
2023-05-08T00:10:13.002Z,14.15
2023-05-08T00:12:39.547Z,14.14
2023-05-08T00:15:06.758Z,14.12
2023-05-08T00:17:34.063Z,14.08
2023-05-08T00:20:00.672Z,14.05
2023-05-08T00:22:30.164Z,14.07
2023-05-08T00:24:56.719Z,14.03
2023-05-08T00:27:23.067Z,14.00
2023-05-08T00:29:52.013Z,14.00
2023-05-08T00:32:21.023Z,13.99
2023-05-08T00:34:50.288Z,14.05
2023-05-08T00:37:16.869Z,14.04
2023-05-08T00:39:43.783Z,14.08
2023-05-08T00:42:10.325Z,14.12
2023-05-08T00:44:39.449Z,14.05
2023-05-08T00:47:07.300Z,14.03
2023-05-08T00:49:35.614Z,14.20
2023-05-08T00:52:04.735Z,14.13
2023-05-08T00:54:31.607Z,14.16
2023-05-08T00:56:58.104Z,14.16
2023-05-08T00:59:27.134Z,14.06
2023-05-08T01:01:56.969Z,14.00
2023-05-08T01:04:25.140Z,14.01
2023-05-08T01:06:51.646Z,14.09
2023-05-08T01:09:18.076Z,14.01
2023-05-08T01:11:56.050Z,14.01
2023-05-08T01:14:29.808Z,13.98
2023-05-08T01:17:11.820Z,13.94
2023-05-08T01:19:41.209Z,13.88
2023-05-08T01:22:16.491Z,13.88
2023-05-08T01:25:04.276Z,13.86
2023-05-08T01:28:06.674Z,13.84
2023-05-08T01:30:38.885Z,13.85
2023-05-08T01:33:17.329Z,13.82
2023-05-08T01:35:49.975Z,13.77
2023-05-08T01:38:26.664Z,13.83
2023-05-08T01:40:56.656Z,13.83
2023-05-08T01:43:31.381Z,13.82
2023-05-08T01:46:01.609Z,13.85
2023-05-08T01:48:37.591Z,13.88
2023-05-08T01:51:11.914Z,13.84
2023-05-08T01:53:43.034Z,13.89
2023-05-08T01:56:18.988Z,13.90
2023-05-08T01:58:49.823Z,13.89
2023-05-08T02:01:18.889Z,13.87
2023-05-08T02:03:46.579Z,13.97
2023-05-08T02:06:17.269Z,13.91
2023-05-08T02:08:44.877Z,13.92
2023-05-08T02:11:13.491Z,13.88
2023-05-08T02:13:41.537Z,13.88
2023-05-08T02:16:11.469Z,13.91
2023-05-08T02:18:40.254Z,13.92
2023-05-08T02:21:09.433Z,13.86
2023-05-08T02:23:36.294Z,13.88
2023-05-08T02:26:04.590Z,13.81
2023-05-08T02:28:35.122Z,13.85
2023-05-08T02:31:04.916Z,13.80
2023-05-08T02:33:32.307Z,13.77
2023-05-08T02:36:00.499Z,13.76
2023-05-08T02:38:27.263Z,13.72
2023-05-08T02:41:02.270Z,13.74
2023-05-08T02:43:32.006Z,13.77
2023-05-08T02:46:10.890Z,13.73
2023-05-08T02:49:01.923Z,13.72
2023-05-08T02:51:56.356Z,13.74
2023-05-08T02:54:33.169Z,13.72
2023-05-08T02:57:14.454Z,13.76
2023-05-08T02:59:45.794Z,13.76
2023-05-08T03:02:40.580Z,13.74
2023-05-08T03:05:15.305Z,13.78
2023-05-08T03:07:43.633Z,13.77
2023-05-08T03:10:13.276Z,13.77
2023-05-08T03:12:44.889Z,13.77
2023-05-08T03:15:23.968Z,13.75
2023-05-08T03:17:54.714Z,13.77
2023-05-08T03:20:24.693Z,13.75
2023-05-08T03:22:54.689Z,13.77
2023-05-08T03:25:21.739Z,13.76
2023-05-08T03:27:49.049Z,13.77
2023-05-08T03:30:16.895Z,13.73
2023-05-08T03:32:46.908Z,13.76
2023-05-08T03:35:15.416Z,13.78
2023-05-08T03:37:43.236Z,13.77
2023-05-08T03:40:10.475Z,13.77
2023-05-08T03:42:37.559Z,13.75
2023-05-08T03:45:04.947Z,13.75
2023-05-08T03:47:32.248Z,13.76
2023-05-08T03:50:01.491Z,13.82
2023-05-08T03:52:27.929Z,13.79
2023-05-08T03:54:56.929Z,13.80
2023-05-08T03:57:33.460Z,13.80
2023-05-08T04:00:11.100Z,13.78
2023-05-08T04:02:42.303Z,13.81
2023-05-08T04:05:26.958Z,13.82
2023-05-08T04:08:03.072Z,13.85
2023-05-08T04:10:32.393Z,13.83
2023-05-08T04:13:07.215Z,13.84
2023-05-08T04:15:38.445Z,13.84
2023-05-08T04:18:09.332Z,13.81
2023-05-08T04:20:40.320Z,13.79
2023-05-08T04:23:08.755Z,13.82
2023-05-08T04:25:39.748Z,13.84
2023-05-08T04:28:06.279Z,13.86
2023-05-08T04:30:35.618Z,13.88
2023-05-08T04:33:05.077Z,13.95
2023-05-08T04:35:33.827Z,13.94
2023-05-08T04:38:00.489Z,13.95
2023-05-08T04:40:26.907Z,13.98
2023-05-08T04:42:57.430Z,13.96
2023-05-08T04:45:24.084Z,14.01
2023-05-08T04:47:50.509Z,14.06
2023-05-08T04:50:16.976Z,14.07
2023-05-08T04:52:46.568Z,14.05
2023-05-08T04:55:13.281Z,14.04
2023-05-08T04:57:40.473Z,14.03
2023-05-08T05:00:07.524Z,14.06
2023-05-08T05:02:34.250Z,14.10
2023-05-08T05:05:01.385Z,14.11
2023-05-08T05:07:27.961Z,14.11
2023-05-08T05:09:54.427Z,14.14
2023-05-08T05:12:24.180Z,14.15
2023-05-08T05:14:51.240Z,14.17
2023-05-08T05:17:18.070Z,14.14
2023-05-08T05:19:44.510Z,14.17
2023-05-08T05:22:11.616Z,14.21
2023-05-08T05:24:39.857Z,14.24
2023-05-08T05:27:09.837Z,14.20
2023-05-08T05:29:36.412Z,14.21
2023-05-08T05:32:03.445Z,14.21
2023-05-08T05:34:30.311Z,14.27
2023-05-08T05:36:56.738Z,14.32
2023-05-08T05:39:23.283Z,14.31
2023-05-08T05:41:52.569Z,14.30
2023-05-08T05:44:18.976Z,14.28
2023-05-08T05:46:47.847Z,14.27
2023-05-08T05:49:14.379Z,14.28
2023-05-08T05:51:40.794Z,14.33
2023-05-08T05:54:07.320Z,14.34
2023-05-08T05:56:33.740Z,14.32
2023-05-08T05:59:02.617Z,14.35
2023-05-08T06:01:29.159Z,14.34
2023-05-08T06:04:00.686Z,14.37
2023-05-08T06:06:27.585Z,14.37
2023-05-08T06:08:54.323Z,14.39
2023-05-08T06:11:22.676Z,14.39
2023-05-08T06:13:50.462Z,14.42
2023-05-08T06:16:17.325Z,14.47
2023-05-08T06:18:43.801Z,14.48
2023-05-08T06:21:10.487Z,14.55
2023-05-08T06:23:37.264Z,14.62
2023-05-08T06:26:03.853Z,14.69
2023-05-08T06:28:30.453Z,14.75
2023-05-08T06:30:56.825Z,14.77
2023-05-08T06:33:26.909Z,14.77
2023-05-08T06:35:53.895Z,14.79
2023-05-08T06:38:20.424Z,14.79
2023-05-08T06:40:47.975Z,14.74
2023-05-08T06:43:14.433Z,14.75
2023-05-08T06:45:40.855Z,14.76
2023-05-08T06:48:07.730Z,14.78
2023-05-08T06:50:34.291Z,14.74
2023-05-08T06:53:01.275Z,14.67
2023-05-08T06:55:30.599Z,14.64
2023-05-08T06:57:57.152Z,14.62
2023-05-08T07:00:26.052Z,14.66
2023-05-08T07:02:52.676Z,14.70
2023-05-08T07:05:21.819Z,14.68
2023-05-08T07:07:48.249Z,14.78
2023-05-08T07:10:14.751Z,14.77
2023-05-08T07:12:41.322Z,14.77
2023-05-08T07:15:24.026Z,14.84
2023-05-08T07:17:52.974Z,14.86
2023-05-08T07:20:19.664Z,14.87
2023-05-08T07:22:46.675Z,14.90
2023-05-08T07:25:16.235Z,14.84
2023-05-08T07:27:43.032Z,14.87
2023-05-08T07:30:09.830Z,14.93
2023-05-08T07:32:38.464Z,14.85
2023-05-08T07:35:09.738Z,14.84
2023-05-08T07:37:37.133Z,14.87
2023-05-08T07:40:03.972Z,14.86
2023-05-08T07:42:30.353Z,14.84
2023-05-08T07:44:57.301Z,14.84
2023-05-08T07:47:23.916Z,14.79
2023-05-08T07:49:53.350Z,14.68
2023-05-08T07:52:19.927Z,14.72
2023-05-08T07:54:46.534Z,14.74
2023-05-08T07:57:13.038Z,14.72
2023-05-08T07:59:41.871Z,14.73
2023-05-08T08:02:11.393Z,14.73
2023-05-08T08:04:38.105Z,14.76
2023-05-08T08:07:04.609Z,14.74
2023-05-08T08:09:31.263Z,14.78
2023-05-08T08:11:58.254Z,14.76
2023-05-08T08:14:24.621Z,14.78
2023-05-08T08:16:51.215Z,14.82
2023-05-08T08:19:17.762Z,14.82
2023-05-08T08:21:44.813Z,14.82
2023-05-08T08:24:12.609Z,14.82
2023-05-08T08:26:39.027Z,14.85
2023-05-08T08:29:05.585Z,14.93
2023-05-08T08:31:32.151Z,14.96
2023-05-08T08:34:01.037Z,14.96
2023-05-08T08:36:28.043Z,14.96
2023-05-08T08:38:54.482Z,15.11
2023-05-08T08:41:21.747Z,15.19
2023-05-08T08:43:49.051Z,15.21
2023-05-08T08:46:20.221Z,15.31
2023-05-08T08:48:47.376Z,15.34
2023-05-08T08:51:33.417Z,15.48
2023-05-08T08:54:07.731Z,15.50
2023-05-08T08:56:36.257Z,15.65
2023-05-08T08:59:04.476Z,15.73
2023-05-08T09:01:36.360Z,15.75
2023-05-08T09:04:02.973Z,15.80
2023-05-08T09:06:29.813Z,15.85
2023-05-08T09:08:57.951Z,15.90
2023-05-08T09:11:25.258Z,16.00
2023-05-08T09:13:51.897Z,16.03
2023-05-08T09:16:18.954Z,15.95
2023-05-08T09:18:45.830Z,15.92
2023-05-08T09:21:12.992Z,15.87
2023-05-08T09:24:02.461Z,15.86
2023-05-08T09:26:35.336Z,15.82
2023-05-08T09:29:24.299Z,16.01
2023-05-08T09:31:53.068Z,16.02
2023-05-08T09:34:28.002Z,16.01
2023-05-08T09:37:09.816Z,16.05
2023-05-08T09:39:36.260Z,16.10
2023-05-08T09:42:06.751Z,16.23
2023-05-08T09:44:46.395Z,16.14
2023-05-08T09:47:14.484Z,16.16
2023-05-08T09:50:23.189Z,16.17
2023-05-08T09:52:52.671Z,16.22
2023-05-08T09:55:19.374Z,16.32
2023-05-08T09:57:57.187Z,16.34
2023-05-08T10:00:26.336Z,16.32
2023-05-08T10:03:03.982Z,16.17
2023-05-08T10:05:36.261Z,16.10
2023-05-08T10:08:23.842Z,15.96
2023-05-08T10:10:53.548Z,15.85
2023-05-08T10:13:20.837Z,15.82
2023-05-08T10:15:54.421Z,15.81
2023-05-08T10:18:28.517Z,15.90
2023-05-08T10:20:58.217Z,15.98
2023-05-08T10:23:26.702Z,16.06
2023-05-08T10:25:56.978Z,16.04
2023-05-08T10:28:33.184Z,15.93
2023-05-08T10:31:03.141Z,15.85
2023-05-08T10:33:31.700Z,15.92
2023-05-08T10:36:00.054Z,15.90
2023-05-08T10:38:27.315Z,15.94
2023-05-08T10:40:57.881Z,16.09
2023-05-08T10:43:29.236Z,16.11
2023-05-08T10:45:57.814Z,16.21
2023-05-08T10:48:45.799Z,16.23
2023-05-08T10:51:41.119Z,16.34
2023-05-08T10:54:38.312Z,16.54
2023-05-08T10:57:09.568Z,16.69
2023-05-08T10:59:39.377Z,16.71
2023-05-08T11:02:08.377Z,16.71
2023-05-08T11:04:35.178Z,16.76
2023-05-08T11:07:02.194Z,16.86
2023-05-08T11:09:33.732Z,16.94
2023-05-08T11:12:07.983Z,17.09
2023-05-08T11:14:38.512Z,17.14
2023-05-08T11:17:08.965Z,17.37
2023-05-08T11:19:36.362Z,17.40
2023-05-08T11:22:23.584Z,17.19
2023-05-08T11:25:02.209Z,17.26
2023-05-08T11:27:40.634Z,17.37
2023-05-08T11:30:35.100Z,17.39
2023-05-08T11:33:07.135Z,17.52
2023-05-08T11:35:54.420Z,17.81
2023-05-08T11:38:27.822Z,17.90
2023-05-08T11:40:58.429Z,17.98
2023-05-08T11:43:35.998Z,18.05
2023-05-08T11:46:10.422Z,18.05
2023-05-08T11:48:36.814Z,18.07
2023-05-08T11:51:04.036Z,17.99
2023-05-08T11:53:31.378Z,17.76
2023-05-08T11:55:59.221Z,17.82
2023-05-08T11:58:25.933Z,17.82
2023-05-08T12:00:57.903Z,17.74
2023-05-08T12:03:27.273Z,17.48
2023-05-08T12:05:58.837Z,17.49
2023-05-08T12:08:25.625Z,17.35
2023-05-08T12:10:56.779Z,17.40
2023-05-08T12:13:25.605Z,17.30
2023-05-08T12:15:57.824Z,17.42
2023-05-08T12:18:26.312Z,17.37
2023-05-08T12:21:00.465Z,17.51
2023-05-08T12:23:30.960Z,17.57
2023-05-08T12:26:02.177Z,17.73
2023-05-08T12:28:29.390Z,17.72
2023-05-08T12:30:56.214Z,17.96
2023-05-08T12:33:24.229Z,18.38
2023-05-08T12:35:50.908Z,18.68
2023-05-08T12:38:17.352Z,18.72
2023-05-08T12:40:55.431Z,18.59
2023-05-08T12:43:31.286Z,18.69
2023-05-08T12:45:57.846Z,19.13
2023-05-08T12:48:24.232Z,19.21
2023-05-08T12:50:50.567Z,19.18
2023-05-08T12:53:19.398Z,19.09
2023-05-08T12:55:54.580Z,19.07
2023-05-08T12:58:25.445Z,18.94
2023-05-08T13:01:12.890Z,19.16
2023-05-08T13:03:42.545Z,19.16
2023-05-08T13:06:23.024Z,19.31
2023-05-08T13:08:57.432Z,19.27
2023-05-08T13:11:31.711Z,19.28
2023-05-08T13:13:58.243Z,18.96
2023-05-08T13:16:27.297Z,19.29
2023-05-08T13:18:58.611Z,19.03
2023-05-08T13:21:27.233Z,19.11
2023-05-08T13:23:55.408Z,19.03
2023-05-08T13:26:21.807Z,19.12
2023-05-08T13:28:51.327Z,19.11
2023-05-08T13:31:17.756Z,19.36
2023-05-08T13:33:44.295Z,19.32
2023-05-08T13:36:10.731Z,19.02
2023-05-08T13:38:37.069Z,19.05
2023-05-08T13:41:03.516Z,18.99
2023-05-08T13:43:30.815Z,18.80
2023-05-08T13:45:59.638Z,18.75
2023-05-08T13:48:26.010Z,18.74
2023-05-08T13:50:52.414Z,18.52
2023-05-08T13:53:18.982Z,18.53
2023-05-08T13:55:46.220Z,18.33
2023-05-08T13:58:15.251Z,18.32
2023-05-08T14:00:41.672Z,18.32
2023-05-08T14:03:08.916Z,18.23
2023-05-08T14:05:35.501Z,18.26
2023-05-08T14:08:01.868Z,18.27
2023-05-08T14:10:31.076Z,18.35
2023-05-08T14:12:57.501Z,18.37
2023-05-08T14:15:27.027Z,18.47
2023-05-08T14:18:01.144Z,18.40
2023-05-08T14:20:27.832Z,18.58
2023-05-08T14:22:54.235Z,18.53
2023-05-08T14:25:20.780Z,18.48
2023-05-08T14:27:47.329Z,18.58
2023-05-08T14:30:15.286Z,18.62
2023-05-08T14:32:41.831Z,18.65
2023-05-08T14:35:10.314Z,18.54
2023-05-08T14:37:37.392Z,18.67
2023-05-08T14:40:07.295Z,18.60
2023-05-08T14:42:33.715Z,18.71
2023-05-08T14:45:01.388Z,18.81
2023-05-08T14:47:28.119Z,18.61
2023-05-08T14:49:55.857Z,18.73
2023-05-08T14:52:22.537Z,18.56
2023-05-08T14:54:53.797Z,18.48
2023-05-08T14:57:21.451Z,18.47
2023-05-08T15:02:20.631Z,18.24
2023-05-08T15:04:47.202Z,18.34
2023-05-08T15:07:14.536Z,18.18
2023-05-08T15:09:44.269Z,18.26
2023-05-08T15:12:10.660Z,18.17
2023-05-08T15:14:39.649Z,18.22
2023-05-08T15:17:06.375Z,18.20
2023-05-08T15:19:32.756Z,18.29
2023-05-08T15:22:00.013Z,18.30
2023-05-08T15:24:26.425Z,18.23
2023-05-08T15:26:53.045Z,18.35
2023-05-08T15:29:21.547Z,18.36
2023-05-08T15:31:48.423Z,18.18
2023-05-08T15:34:14.837Z,18.15
2023-05-08T15:36:41.837Z,18.20
2023-05-08T15:39:10.724Z,18.15
2023-05-08T15:41:39.951Z,18.09
2023-05-08T15:44:06.948Z,18.13
2023-05-08T15:46:34.075Z,18.07
2023-05-08T15:49:03.372Z,18.05
2023-05-08T15:51:29.822Z,17.99
2023-05-08T15:53:57.635Z,18.03
2023-05-08T15:56:26.721Z,18.05
2023-05-08T15:58:53.743Z,18.07
2023-05-08T16:01:20.698Z,18.10
2023-05-08T16:03:52.836Z,18.07
2023-05-08T16:06:19.235Z,18.03
2023-05-08T16:08:45.803Z,18.09
2023-05-08T16:11:14.681Z,18.22
2023-05-08T16:13:41.984Z,18.32
2023-05-08T16:16:08.727Z,18.33
2023-05-08T16:18:35.483Z,18.39
2023-05-08T16:21:01.889Z,18.32
2023-05-08T16:23:29.063Z,18.36
2023-05-08T16:25:58.085Z,18.33
2023-05-08T16:28:24.500Z,18.37
2023-05-08T16:30:50.946Z,18.40
2023-05-08T16:33:17.347Z,18.32
2023-05-08T16:35:44.483Z,18.25
2023-05-08T16:38:21.916Z,18.21
2023-05-08T16:40:48.275Z,18.18
2023-05-08T16:43:14.738Z,18.20
2023-05-08T16:45:42.790Z,18.22
2023-05-08T16:48:09.415Z,18.17
2023-05-08T16:50:37.073Z,18.17
2023-05-08T16:53:05.231Z,18.14
2023-05-08T16:55:32.730Z,18.12
2023-05-08T16:57:59.099Z,18.13
2023-05-08T17:00:27.326Z,18.10
2023-05-08T17:02:54.436Z,18.08
2023-05-08T17:05:20.939Z,18.02
2023-05-08T17:07:47.542Z,18.03
2023-05-08T17:10:13.920Z,18.01
2023-05-08T17:12:40.621Z,17.95
2023-05-08T17:15:07.760Z,17.92
2023-05-08T17:17:34.225Z,17.88
2023-05-08T17:20:00.761Z,17.90
2023-05-08T17:22:27.181Z,17.85
2023-05-08T17:24:53.573Z,17.82
2023-05-08T17:27:19.955Z,17.74
2023-05-08T17:29:49.329Z,17.73
2023-05-08T17:32:15.710Z,17.67
2023-05-08T17:34:42.146Z,17.56
2023-05-08T17:37:08.602Z,17.57
2023-05-08T17:39:34.976Z,17.47
2023-05-08T17:42:01.332Z,17.42
2023-05-08T17:44:27.732Z,17.38
2023-05-08T17:46:54.160Z,17.30
2023-05-08T17:49:20.701Z,17.26
2023-05-08T17:51:47.531Z,17.20
2023-05-08T17:54:14.071Z,17.13
2023-05-08T17:56:46.424Z,17.04
2023-05-08T17:59:12.842Z,16.98
2023-05-08T18:01:39.272Z,16.91
2023-05-08T18:04:05.837Z,16.83
2023-05-08T18:06:37.280Z,16.80
2023-05-08T18:09:06.130Z,16.76
2023-05-08T18:11:38.211Z,16.76
2023-05-08T18:14:07.290Z,16.74
2023-05-08T18:16:33.798Z,16.69
2023-05-08T18:19:00.728Z,16.60
2023-05-08T18:21:28.723Z,16.60
2023-05-08T18:23:56.897Z,16.51
2023-05-08T18:26:24.068Z,16.51
2023-05-08T18:28:50.808Z,16.48
2023-05-08T18:31:21.516Z,16.40
2023-05-08T18:33:47.985Z,16.32
2023-05-08T18:36:17.048Z,16.26
2023-05-08T18:38:43.670Z,16.24
2023-05-08T18:41:15.320Z,16.17
2023-05-08T18:43:44.769Z,16.16
2023-05-08T18:46:13.191Z,16.12
2023-05-08T18:48:42.675Z,15.98
2023-05-08T18:51:11.019Z,15.88
2023-05-08T18:53:38.803Z,15.77
2023-05-08T18:56:05.554Z,15.63
2023-05-08T18:58:32.319Z,15.58
2023-05-08T19:00:58.858Z,15.47
2023-05-08T19:03:25.585Z,15.40
2023-05-08T19:05:54.581Z,15.40
2023-05-08T19:08:21.026Z,15.35
2023-05-08T19:10:50.301Z,15.25
2023-05-08T19:13:16.830Z,15.15
2023-05-08T19:15:44.250Z,15.09
2023-05-08T19:18:10.782Z,14.98
2023-05-08T19:20:37.457Z,14.91
2023-05-08T19:23:03.820Z,14.83
2023-05-08T19:25:30.168Z,14.77
2023-05-08T19:27:59.474Z,14.73
2023-05-08T19:30:25.847Z,14.70
2023-05-08T19:32:52.214Z,14.66
2023-05-08T19:35:18.590Z,14.65
2023-05-08T19:37:45.837Z,14.65
2023-05-08T19:40:13.766Z,14.66
2023-05-08T19:42:40.633Z,14.66
2023-05-08T19:45:07.950Z,14.74
2023-05-08T19:47:35.186Z,14.79
2023-05-08T19:50:01.602Z,14.83
2023-05-08T19:52:28.392Z,14.88
2023-05-08T19:54:54.882Z,14.91
2023-05-08T19:57:23.693Z,14.90
2023-05-08T19:59:50.103Z,14.89
2023-05-08T20:02:16.719Z,14.89
2023-05-08T20:05:07.944Z,14.93
2023-05-08T20:07:29.756Z,14.88
2023-05-08T20:09:57.352Z,14.86
2023-05-08T20:12:23.696Z,14.83
2023-05-08T20:14:50.111Z,14.83
2023-05-08T20:17:17.763Z,14.81
2023-05-08T20:22:11.166Z,14.75
2023-05-08T20:24:40.939Z,14.71
2023-05-08T20:27:07.397Z,14.63
2023-05-08T20:29:36.699Z,14.58
2023-05-08T20:32:08.144Z,14.52
2023-05-08T20:34:34.662Z,14.47
2023-05-08T20:37:04.370Z,14.41
2023-05-08T20:39:31.508Z,14.39
2023-05-08T20:41:57.847Z,14.33
2023-05-08T20:44:24.422Z,14.30
2023-05-08T20:46:51.758Z,14.26
2023-05-08T20:49:18.211Z,14.23
2023-05-08T20:51:44.542Z,14.20
2023-05-08T20:54:13.542Z,14.19
2023-05-08T20:56:40.087Z,14.33
2023-05-08T20:59:06.799Z,14.39
2023-05-08T21:01:33.211Z,14.42
2023-05-08T21:03:59.621Z,14.47
2023-05-08T21:06:26.022Z,14.45
2023-05-08T21:08:55.258Z,14.46
2023-05-08T21:11:21.925Z,14.39
2023-05-08T21:13:53.201Z,14.32
2023-05-08T21:16:19.600Z,14.27
2023-05-08T21:18:46.078Z,14.24
2023-05-08T21:21:19.875Z,14.20
2023-05-08T21:23:48.922Z,14.14
2023-05-08T21:26:23.266Z,14.15
2023-05-08T21:28:50.050Z,14.15
2023-05-08T21:31:16.431Z,14.12
2023-05-08T21:33:47.560Z,14.10
2023-05-08T21:36:14.023Z,14.06
2023-05-08T21:38:41.567Z,14.03
2023-05-08T21:41:08.561Z,13.97
2023-05-08T21:43:37.826Z,14.06
2023-05-08T21:46:05.784Z,13.98
2023-05-08T21:48:32.301Z,14.02
2023-05-08T21:50:59.431Z,14.01
2023-05-08T21:53:28.427Z,14.03
2023-05-08T21:55:54.795Z,14.03
2023-05-08T21:58:23.524Z,14.03
2023-05-08T22:00:49.909Z,14.02
2023-05-08T22:03:16.428Z,14.03
2023-05-08T22:05:42.951Z,14.06
2023-05-08T22:08:09.392Z,14.11
2023-05-08T22:10:35.883Z,14.15
2023-05-08T22:13:02.981Z,14.26
2023-05-08T22:15:30.520Z,14.39
2023-05-08T22:17:58.382Z,14.28
2023-05-08T22:20:25.123Z,14.31
2023-05-08T22:22:51.639Z,14.41
2023-05-08T22:25:18.106Z,14.43
2023-05-08T22:27:45.659Z,14.50
2023-05-08T22:30:12.270Z,14.49
2023-05-08T22:32:38.796Z,14.44
2023-05-08T22:35:06.320Z,14.51
2023-05-08T22:37:32.723Z,14.51
2023-05-08T22:39:59.165Z,14.44
2023-05-08T22:42:25.770Z,14.48
2023-05-08T22:44:52.416Z,14.39
2023-05-08T22:47:23.404Z,14.39
2023-05-08T22:49:50.336Z,14.41
2023-05-08T22:52:17.019Z,14.44
2023-05-08T22:54:43.495Z,14.44
2023-05-08T22:57:09.892Z,14.40
2023-05-08T22:59:36.487Z,14.26
2023-05-08T23:02:03.029Z,14.30
2023-05-08T23:04:29.574Z,14.30
2023-05-08T23:06:56.018Z,14.38
2023-05-08T23:09:22.877Z,14.22
2023-05-08T23:11:52.129Z,14.13
2023-05-08T23:14:21.100Z,14.04
2023-05-08T23:16:50.190Z,13.96
2023-05-08T23:19:16.659Z,13.91
2023-05-08T23:21:43.119Z,13.82
2023-05-08T23:24:12.178Z,13.74
2023-05-08T23:26:42.208Z,13.64
2023-05-08T23:29:08.701Z,13.56
2023-05-08T23:31:35.131Z,13.48
2023-05-08T23:34:03.918Z,13.40
2023-05-08T23:36:30.339Z,13.30
2023-05-08T23:38:56.937Z,13.24
2023-05-08T23:41:24.128Z,13.18
2023-05-08T23:43:50.611Z,13.11
2023-05-08T23:46:19.231Z,13.08
2023-05-08T23:48:45.609Z,13.03
2023-05-08T23:51:12.055Z,12.98
2023-05-08T23:53:38.642Z,12.93
2023-05-08T23:56:05.700Z,12.88
2023-05-08T23:58:32.082Z,12.84
